Time;durP1;ratioP1;P1;durP2;ratioP2;P2;SDS_P1;SDS_P2;PMS_P1;PMS_P2;Temp;Humidity;BMP_temperature;BMP_pressure;BME280_temperature;BME280_humidity;BME280_pressure;Samples;Min_cycle;Max_cycle;Signal;HPM_P1;HPM_P2
2023/06/26 00:01:13;;;;;;;0.85;0.50;;;;;;;20.05;85.53;98972.25;4984191;28;20037;-90
2023/06/26 00:03:39;;;;;;;1.08;0.60;;;;;;;20.15;84.54;98985.44;4983891;28;20056;-90
2023/06/26 00:06:04;;;;;;;3.65;0.70;;;;;;;20.19;85.09;98975.41;4999930;28;20049;-90
2023/06/26 00:08:30;;;;;;;1.50;0.60;;;;;;;20.23;85.53;98989.22;4983145;28;20025;-90
2023/06/26 00:10:55;;;;;;;1.67;0.80;;;;;;;20.26;85.02;98981.13;4982684;28;20038;-90
2023/06/26 00:13:22;;;;;;;2.10;0.70;;;;;;;20.26;85.60;98981.13;4982828;28;20400;-90
2023/06/26 00:15:47;;;;;;;1.02;0.55;;;;;;;20.25;85.92;98979.53;4983146;28;20030;-90
2023/06/26 00:18:13;;;;;;;1.30;0.70;;;;;;;20.20;86.11;98979.75;4983718;28;20036;-90
2023/06/26 00:20:38;;;;;;;0.95;0.80;;;;;;;20.22;85.29;98977.47;4982846;28;20037;-90
2023/06/26 00:23:07;;;;;;;3.35;0.70;;;;;;;20.31;83.15;98974.63;4982401;28;20033;-90
2023/06/26 00:25:35;;;;;;;1.95;0.90;;;;;;;20.30;83.11;98973.03;4983933;28;20010;-89
2023/06/26 00:28:01;;;;;;;1.98;0.68;;;;;;;20.33;84.88;98989.53;4983445;28;20049;-91
2023/06/26 00:30:26;;;;;;;2.38;0.90;;;;;;;20.21;85.80;98984.06;4982669;28;20029;-90
2023/06/26 00:32:52;;;;;;;1.80;0.90;;;;;;;20.31;85.96;98985.56;4981494;28;20033;-90
2023/06/26 00:35:17;;;;;;;1.58;0.90;;;;;;;20.40;84.35;98989.00;4982905;28;20037;-90
2023/06/26 00:37:43;;;;;;;1.70;0.88;;;;;;;20.35;84.40;98978.28;4982652;28;20083;-89
2023/06/26 00:40:09;;;;;;;1.60;0.90;;;;;;;20.30;83.96;98973.03;4982407;28;20555;-90
2023/06/26 00:42:34;;;;;;;1.38;1.10;;;;;;;20.30;83.76;98984.78;4982696;28;20030;-90
2023/06/26 00:45:00;;;;;;;1.77;1.30;;;;;;;20.26;84.11;98972.13;4983050;28;20029;-90
2023/06/26 00:47:25;;;;;;;2.78;1.33;;;;;;;20.24;86.05;98975.22;4984059;28;20540;-90
2023/06/26 00:49:51;;;;;;;1.70;1.20;;;;;;;20.20;84.43;98966.09;4981854;28;20030;-90
2023/06/26 00:52:17;;;;;;;1.67;1.35;;;;;;;20.27;85.85;98977.25;4982625;28;20041;-90
2023/06/26 00:54:42;;;;;;;1.98;1.50;;;;;;;20.25;84.45;98965.84;4983326;28;20022;-90
2023/06/26 00:57:08;;;;;;;2.15;1.40;;;;;;;20.26;84.52;98967.47;4982233;28;20068;-90
2023/06/26 00:59:34;;;;;;;1.83;1.50;;;;;;;20.23;85.30;98964.59;4983000;28;20033;-90
2023/06/26 01:01:59;;;;;;;2.83;1.48;;;;;;;20.17;84.51;98962.13;4983066;28;20033;-90
2023/06/26 01:04:27;;;;;;;2.30;1.30;;;;;;;20.10;84.64;98961.88;4982613;28;20408;-90
2023/06/26 01:06:52;;;;;;;3.00;1.40;;;;;;;20.11;84.59;98962.69;4982780;28;20053;-90
2023/06/26 01:09:18;;;;;;;2.03;1.20;;;;;;;20.24;83.87;98972.47;4982082;28;20092;-90
2023/06/26 01:11:43;;;;;;;3.25;1.30;;;;;;;20.21;84.04;98964.94;4998004;28;20036;-90
2023/06/26 01:14:09;;;;;;;1.52;1.20;;;;;;;20.13;83.62;98963.94;4981635;28;20041;-90
2023/06/26 01:16:35;;;;;;;2.47;1.30;;;;;;;20.26;84.68;98981.13;4982527;28;20033;-89
2023/06/26 01:19:00;;;;;;;2.05;1.48;;;;;;;20.22;86.56;98977.47;4982187;28;20025;-90
2023/06/26 01:21:32;;;;;;;2.25;1.50;;;;;;;20.25;86.61;98986.94;4981345;28;20468;-90
2023/06/26 01:24:10;;;;;;;;;;;;;;;20.22;86.82;98982.97;4984058;28;20095;-90
2023/06/26 01:26:35;;;;;;;4.40;1.67;;;;;;;20.25;87.29;98978.72;5014082;28;19959;-90
2023/06/26 01:29:01;;;;;;;3.25;1.70;;;;;;;20.17;88.16;98983.16;4982592;28;20026;-90
2023/06/26 01:31:27;;;;;;;5.03;1.70;;;;;;;20.15;87.75;98974.50;4981862;28;20112;-90
2023/06/26 01:33:52;;;;;;;2.80;1.77;;;;;;;20.13;88.20;98983.06;4981936;28;20006;-90
2023/06/26 01:36:18;;;;;;;2.78;1.40;;;;;;;20.13;87.07;98987.72;4981833;28;20017;-90
2023/06/26 01:38:43;;;;;;;2.22;1.60;;;;;;;20.25;86.48;98987.72;4982106;28;20018;-90
2023/06/26 01:41:09;;;;;;;2.25;1.55;;;;;;;20.31;87.03;98991.03;4981952;28;20030;-89
2023/06/26 01:44:03;;;;;;;2.30;1.60;;;;;;;20.35;87.65;99002.88;4981909;28;20033;-89
2023/06/26 01:46:47;;;;;;;2.35;1.40;;;;;;;20.39;86.53;98999.09;4982484;28;20108;-90
2023/06/26 01:49:54;;;;;;;3.83;1.67;;;;;;;20.43;85.25;99007.44;4997906;28;20476;-90
2023/06/26 01:52:39;;;;;;;2.13;1.30;;;;;;;20.41;86.06;98993.31;4997888;28;20038;-90
2023/06/26 01:55:10;;;;;;;3.40;1.50;;;;;;;20.45;84.86;99005.16;4981874;28;20053;-90
2023/06/26 01:57:36;;;;;;;4.43;1.30;;;;;;;20.33;83.98;98996.97;4997969;28;20026;-90
2023/06/26 02:00:02;;;;;;;4.38;1.50;;;;;;;20.30;85.46;99005.84;4981448;28;20030;-91
2023/06/26 02:02:30;;;;;;;2.15;1.10;;;;;;;20.31;85.05;99008.22;4981093;28;20029;-90
2023/06/26 02:04:56;;;;;;;2.60;1.35;;;;;;;20.23;82.73;98997.41;4978639;28;20050;-90
2023/06/26 02:07:21;;;;;;;3.08;1.50;;;;;;;20.24;84.36;98999.03;4978340;28;20030;-90
2023/06/26 02:09:47;;;;;;;3.13;1.63;;;;;;;20.25;84.32;99004.13;4978191;28;20025;-90
2023/06/26 02:12:12;;;;;;;3.15;1.30;;;;;;;20.21;83.82;99003.22;4977995;28;20084;-90
2023/06/26 02:14:38;;;;;;;3.65;1.55;;;;;;;20.06;84.23;98988.28;4979145;28;20027;-90
2023/06/26 02:17:04;;;;;;;2.70;1.50;;;;;;;20.08;83.89;99007.09;4962235;28;20049;-90
2023/06/26 02:19:29;;;;;;;7.85;1.70;;;;;;;20.07;84.37;98995.38;4961780;28;20030;-90
2023/06/26 02:21:55;;;;;;;1.83;1.60;;;;;;;20.09;84.04;98995.03;4963048;28;20034;-90
2023/06/26 02:24:20;;;;;;;2.38;1.58;;;;;;;20.15;83.22;98988.19;4979930;28;20030;-90
2023/06/26 02:26:46;;;;;;;1.85;1.23;;;;;;;20.05;83.18;98977.72;4964600;28;20026;-90
2023/06/26 02:29:11;;;;;;;1.90;1.40;;;;;;;20.10;83.44;98974.75;4965697;28;20010;-90
2023/06/26 02:31:37;;;;;;;3.63;1.40;;;;;;;20.14;84.29;98983.88;4966173;28;20034;-90
2023/06/26 02:34:03;;;;;;;2.75;1.70;;;;;;;20.04;85.60;98971.44;4965432;28;20089;-90
2023/06/26 02:36:28;;;;;;;2.67;1.50;;;;;;;20.00;84.46;98978.72;4981170;28;20133;-90
2023/06/26 02:38:54;;;;;;;2.53;1.30;;;;;;;20.07;85.35;98989.91;4965559;28;20037;-90
2023/06/26 02:41:19;;;;;;;4.38;1.60;;;;;;;20.05;86.15;98975.78;4981208;28;20030;-90
2023/06/26 02:43:44;;;;;;;2.53;1.60;;;;;;;19.98;87.02;98976.34;4965903;28;20022;-90
2023/06/26 02:46:10;;;;;;;3.42;1.67;;;;;;;20.09;85.93;98986.84;4965769;28;20018;-90
2023/06/26 02:48:35;;;;;;;3.72;1.73;;;;;;;20.09;85.93;98975.91;4964225;28;20026;-90
2023/06/26 02:51:01;;;;;;;2.60;1.73;;;;;;;19.97;85.48;98984.88;4965653;28;20077;-90
2023/06/26 02:53:26;;;;;;;3.20;1.40;;;;;;;20.01;85.74;98990.47;4981583;28;20053;-90
2023/06/26 02:55:52;;;;;;;2.28;1.70;;;;;;;19.91;86.23;98989.78;4965087;28;20022;-89
2023/06/26 02:58:18;;;;;;;2.28;1.55;;;;;;;19.95;85.80;98981.69;4981090;28;20030;-90
2023/06/26 03:00:44;;;;;;;2.30;1.65;;;;;;;20.09;85.09;98984.91;4980938;28;20018;-90
2023/06/26 03:03:09;;;;;;;5.65;1.75;;;;;;;20.10;86.60;98983.75;4964700;28;20038;-90
2023/06/26 03:05:35;;;;;;;4.28;1.77;;;;;;;20.06;87.61;98973.84;4981369;28;20026;-90
2023/06/26 03:08:02;;;;;;;3.28;2.17;;;;;;;20.10;87.04;98978.28;4964860;28;20022;-90
2023/06/26 03:10:28;;;;;;;3.28;1.90;;;;;;;20.09;87.25;98984.09;4964607;28;20057;-90
2023/06/26 03:12:53;;;;;;;3.72;2.92;;;;;;;20.15;86.35;98980.78;4981749;28;20030;-91
2023/06/26 03:15:19;;;;;;;2.45;1.70;;;;;;;20.08;85.80;98977.03;4981503;28;20030;-91
2023/06/26 03:17:44;;;;;;;5.32;2.05;;;;;;;20.21;85.50;98983.28;4980413;28;20484;-91
2023/06/26 03:20:10;;;;;;;7.25;4.63;;;;;;;20.16;86.56;98974.19;4965664;28;20091;-90
2023/06/26 03:22:36;;;;;;;6.00;1.98;;;;;;;20.26;85.01;98978.41;4980750;28;20019;-90
2023/06/26 03:25:02;;;;;;;3.30;2.22;;;;;;;20.22;84.17;98982.97;4979678;28;20525;-91
2023/06/26 03:27:27;;;;;;;2.95;2.00;;;;;;;20.23;85.13;98990.00;4964483;28;20018;-90
2023/06/26 03:29:53;;;;;;;3.03;2.00;;;;;;;20.26;86.22;98991.28;4980933;28;20029;-88
2023/06/26 03:32:18;;;;;;;4.70;2.20;;;;;;;20.31;84.80;98996.50;4964681;28;20030;-91
2023/06/26 03:34:44;;;;;;;2.60;2.03;;;;;;;20.27;83.96;98993.66;4980405;28;20019;-91
2023/06/26 03:37:09;;;;;;;3.08;2.15;;;;;;;20.15;83.98;98982.72;4964728;28;20061;-91
2023/06/26 03:39:35;;;;;;;3.08;2.35;;;;;;;20.15;84.14;98994.47;4965305;28;20089;-90
2023/06/26 03:42:01;;;;;;;6.50;2.80;;;;;;;20.11;84.04;98990.03;4981019;28;20029;-91
2023/06/26 03:44:27;;;;;;;7.88;3.08;;;;;;;20.08;84.38;98974.28;4981991;28;20026;-91
2023/06/26 03:46:52;;;;;;;5.32;2.63;;;;;;;20.22;83.98;98996.63;4964294;28;20029;-90
2023/06/26 03:49:18;;;;;;;3.63;2.65;;;;;;;20.09;85.01;98992.31;4980659;28;20113;-90
2023/06/26 03:51:44;;;;;;;7.18;4.20;;;;;;;20.03;84.32;98996.41;4981767;28;20022;-91
2023/06/26 03:54:09;;;;;;;7.50;4.15;;;;;;;20.12;84.63;99002.53;4964481;28;20030;-91
2023/06/26 03:56:35;;;;;;;6.97;4.32;;;;;;;20.13;84.59;98993.19;4978157;28;20023;-92
2023/06/26 03:59:01;;;;;;;4.88;4.00;;;;;;;20.07;85.41;98987.16;4993527;28;20042;-91
2023/06/26 04:01:26;;;;;;;8.10;4.95;;;;;;;20.14;85.39;98986.59;4961750;28;20031;-90
2023/06/26 04:03:52;;;;;;;8.93;5.90;;;;;;;20.12;84.14;98997.88;4977597;28;20492;-90
2023/06/26 04:06:17;;;;;;;8.23;4.93;;;;;;;20.16;83.58;98990.56;4977640;28;20035;-89
2023/06/26 04:08:45;;;;;;;7.57;5.40;;;;;;;20.17;84.38;98991.38;4977214;28;20103;-90
2023/06/26 04:11:10;;;;;;;7.25;5.95;;;;;;;20.17;84.61;98999.56;4977709;28;20023;-90
2023/06/26 04:13:36;;;;;;;7.07;5.85;;;;;;;20.16;84.03;98993.31;4964849;28;20096;-90
2023/06/26 04:16:01;;;;;;;8.05;6.20;;;;;;;20.17;83.41;98996.84;4965273;28;20030;-88
2023/06/26 04:18:27;;;;;;;9.77;5.93;;;;;;;20.17;83.88;98999.56;4978991;28;20019;-89
2023/06/26 04:21:20;;;;;;;8.05;6.45;;;;;;;20.14;83.69;99001.06;4980355;28;20028;-91
2023/06/26 04:23:47;;;;;;;9.90;6.57;;;;;;;20.09;84.72;98989.56;4965242;28;20034;-89
2023/06/26 04:26:14;;;;;;;10.70;6.45;;;;;;;20.15;83.33;98993.66;4979405;28;20030;-89
2023/06/26 04:28:40;;;;;;;8.52;6.57;;;;;;;20.23;84.09;98991.94;4965491;28;20451;-90
2023/06/26 04:31:05;;;;;;;8.90;6.28;;;;;;;20.20;82.11;98993.44;4979939;28;20026;-91
2023/06/26 04:33:30;;;;;;;8.95;6.68;;;;;;;20.19;82.59;98981.72;4979847;28;20037;-91
2023/06/26 04:35:56;;;;;;;9.70;6.30;;;;;;;20.05;81.56;98986.72;4981669;28;20033;-89
2023/06/26 04:38:22;;;;;;;8.50;6.90;;;;;;;20.09;82.60;98982.16;4962970;28;20074;-89
2023/06/26 04:40:48;;;;;;;13.80;7.10;;;;;;;20.20;81.78;98990.69;4962235;28;20026;-90
2023/06/26 04:43:14;;;;;;;8.15;6.53;;;;;;;20.22;81.47;98991.16;4967091;28;20030;-90
2023/06/26 04:45:39;;;;;;;11.57;7.63;;;;;;;20.25;82.96;99003.34;4963930;28;20057;-91
2023/06/26 04:48:05;;;;;;;9.10;7.38;;;;;;;20.34;82.43;98990.38;4980505;28;20038;-90
2023/06/26 04:50:31;;;;;;;16.38;7.25;;;;;;;20.30;82.20;98982.03;4980626;28;20030;-90
2023/06/26 04:52:56;;;;;;;12.50;7.47;;;;;;;20.21;81.76;98992.28;4980362;28;20049;-89
2023/06/26 04:55:24;;;;;;;14.85;7.65;;;;;;;20.27;82.41;98999.13;4964156;28;20034;-89
2023/06/26 04:57:49;;;;;;;10.88;7.70;;;;;;;20.31;80.36;98988.28;4965613;28;20094;-90
2023/06/26 05:00:15;;;;;;;11.70;7.45;;;;;;;20.34;81.79;98993.09;4963741;28;20054;-93
2023/06/26 05:02:41;;;;;;;9.68;7.18;;;;;;;20.28;81.69;99002.66;4965074;28;20038;-91
2023/06/26 05:05:07;;;;;;;11.70;8.95;;;;;;;20.26;82.49;98994.81;4975875;28;20053;-91
2023/06/26 05:08:17;;;;;;;21.23;13.10;;;;;;;20.25;84.53;99009.59;4966053;28;20389;-93
2023/06/26 05:10:50;;;;;;;13.05;9.23;;;;;;;20.32;83.99;99015.31;4989758;28;20041;-92
2023/06/26 05:16:24;;;;;;;10.85;7.22;;;;;;;20.22;81.81;99015.75;4974594;28;20064;-92
2023/06/26 05:18:49;;;;;;;14.88;8.50;;;;;;;20.27;81.50;99012.78;4966229;28;20034;-95
2023/06/26 05:21:15;;;;;;;12.07;6.50;;;;;;;20.36;80.58;99023.63;4970496;28;20030;-91
2023/06/26 05:23:41;;;;;;;11.60;6.82;;;;;;;20.38;80.18;99018.63;4973364;28;20030;-93
2023/06/26 05:26:07;;;;;;;9.90;7.15;;;;;;;20.54;80.03;99043.31;4982343;28;20559;-92
2023/06/26 05:28:35;;;;;;;10.50;7.63;;;;;;;20.45;81.65;99026.25;4966215;28;20040;-91
2023/06/26 05:34:31;;;;;;;10.60;6.47;;;;;;;20.77;79.28;99055.44;4987995;28;20080;-96
2023/06/26 05:37:00;;;;;;;10.30;6.28;;;;;;;20.39;78.33;99042.88;4963249;28;20496;-95
2023/06/26 05:39:29;;;;;;;9.18;6.05;;;;;;;20.45;78.04;99048.91;4953657;28;20034;-96
2023/06/26 05:41:56;;;;;;;10.57;6.53;;;;;;;20.35;78.08;99028.28;4972394;28;20034;-96
2023/06/26 05:44:24;;;;;;;11.73;6.93;;;;;;;20.59;77.49;99059.53;4958802;28;20030;-94
2023/06/26 05:46:49;;;;;;;12.10;7.22;;;;;;;20.24;79.72;99038.09;4957900;28;20030;-96
2023/06/26 05:49:15;;;;;;;26.25;17.23;;;;;;;20.18;80.46;99033.97;4953600;28;20069;-94
2023/06/26 05:51:47;;;;;;;10.00;6.82;;;;;;;20.35;77.75;99039.22;4970631;28;20038;-95
2023/06/26 05:54:13;;;;;;;;;;;;;;;20.61;77.36;99068.22;4959596;28;20038;-96
2023/06/26 05:56:40;;;;;;;10.10;6.32;;;;;;;20.53;76.76;99066.34;4974084;28;19909;-96
2023/06/26 05:59:06;;;;;;;10.80;7.40;;;;;;;20.53;78.55;99041.72;4961266;28;20026;-95
2023/06/26 06:01:35;;;;;;;12.02;8.25;;;;;;;20.55;78.22;99036.72;4957553;28;20084;-94
2023/06/26 06:04:01;;;;;;;13.77;8.07;;;;;;;20.75;76.79;99054.16;4956438;28;20065;-96
2023/06/26 06:06:26;;;;;;;16.85;11.85;;;;;;;20.88;76.95;99042.06;4960166;28;20101;-93
2023/06/26 06:08:52;;;;;;;11.25;7.80;;;;;;;21.06;77.19;99048.03;4973484;28;20002;-92
2023/06/26 06:11:18;;;;;;;9.10;6.28;;;;;;;21.12;74.08;99038.44;4963373;28;20030;-92
2023/06/26 06:13:43;;;;;;;7.88;5.43;;;;;;;21.37;74.13;99063.00;4956473;28;20030;-92
2023/06/26 06:16:09;;;;;;;8.75;5.88;;;;;;;21.36;73.72;99026.63;4972581;28;20583;-91
2023/06/26 06:18:34;;;;;;;10.13;6.82;;;;;;;21.33;74.53;99037.47;4959079;28;20048;-95
2023/06/26 06:21:00;;;;;;;11.55;8.95;;;;;;;21.65;74.34;99065.78;4958231;28;20089;-96
2023/06/26 06:23:27;;;;;;;19.23;14.65;;;;;;;21.39;73.47;99028.66;4963932;28;20038;-95
2023/06/26 06:25:52;;;;;;;23.00;19.60;;;;;;;21.45;74.38;99036.66;4962858;28;20027;-96
2023/06/26 06:28:24;;;;;;;10.10;6.05;;;;;;;21.49;74.08;99026.59;4953423;28;20134;-94
2023/06/26 06:30:52;;;;;;;12.57;9.40;;;;;;;21.81;71.90;99060.34;4955265;28;20034;-94
2023/06/26 06:33:17;;;;;;;10.45;6.78;;;;;;;21.67;72.45;99038.81;4967482;28;20034;-94
2023/06/26 06:35:43;;;;;;;13.40;6.38;;;;;;;21.73;72.49;99064.81;4968546;28;20065;-94
2023/06/26 06:38:09;;;;;;;11.88;6.55;;;;;;;21.91;73.10;99048.03;4955309;28;20057;-95
2023/06/26 06:40:34;;;;;;;7.13;5.22;;;;;;;22.03;70.01;99058.94;4956097;28;20026;-95
2023/06/26 06:43:00;;;;;;;12.65;6.70;;;;;;;22.07;72.54;99035.16;4956736;28;20103;-94
2023/06/26 06:45:26;;;;;;;8.52;6.78;;;;;;;22.00;74.44;99049.47;4957834;28;20022;-94
2023/06/26 06:47:51;;;;;;;10.85;8.95;;;;;;;21.86;71.32;99045.56;4956259;28;20030;-93
2023/06/26 06:50:20;;;;;;;7.32;5.85;;;;;;;21.93;70.74;99046.53;4956314;28;20081;-96
2023/06/26 06:52:46;;;;;;;8.82;6.30;;;;;;;21.89;71.53;99022.94;4963917;28;20037;-94
2023/06/26 06:55:12;;;;;;;10.30;6.75;;;;;;;22.16;72.19;99051.41;4959612;28;20121;-94
2023/06/26 06:57:45;;;;;;;10.32;5.53;;;;;;;22.23;70.06;99059.03;4965741;28;20026;-96
2023/06/26 07:00:14;;;;;;;9.02;5.88;;;;;;;22.28;69.80;99036.84;4976142;28;20031;-95
2023/06/26 07:02:41;;;;;;;9.00;4.60;;;;;;;22.68;66.19;99066.00;4971175;28;20022;-93
2023/06/26 07:05:07;;;;;;;13.25;6.70;;;;;;;22.71;66.92;99043.34;4965809;28;20152;-96
2023/06/26 07:07:33;;;;;;;16.13;6.07;;;;;;;22.86;68.60;99058.19;4971170;28;20014;-95
2023/06/26 07:10:13;;;;;;;8.15;4.25;;;;;;;23.17;66.29;99063.59;4970481;28;20192;-95
2023/06/26 07:12:38;;;;;;;8.35;4.95;;;;;;;23.11;67.64;99058.75;4961409;28;20018;-92
2023/06/26 07:15:04;;;;;;;10.43;4.95;;;;;;;22.96;66.54;99058.41;4974071;28;20015;-91
2023/06/26 07:17:44;;;;;;;13.55;4.90;;;;;;;22.96;67.31;99072.13;4958025;28;20488;-92
2023/06/26 07:20:14;;;;;;;7.45;5.28;;;;;;;22.89;66.26;99051.97;4957881;28;20053;-92
2023/06/26 07:23:17;;;;;;;9.20;6.25;;;;;;;22.99;66.84;99065.13;4958202;28;20530;-93
2023/06/26 07:25:43;;;;;;;8.40;4.45;;;;;;;22.96;65.66;99063.91;4969625;28;20030;-93
2023/06/26 07:28:11;;;;;;;16.50;7.30;;;;;;;22.94;67.55;99070.91;4958356;28;20038;-94
2023/06/26 07:30:40;;;;;;;13.93;9.02;;;;;;;22.98;68.27;99080.81;4945641;28;20026;-93
2023/06/26 07:33:05;;;;;;;10.48;9.38;;;;;;;23.19;65.05;99077.75;4951501;28;20050;-90
2023/06/26 07:35:52;;;;;;;12.93;8.88;;;;;;;23.34;63.55;99084.34;4953657;28;20041;-91
2023/06/26 07:38:17;;;;;;;6.75;5.10;;;;;;;23.53;64.61;99075.31;4952256;28;20107;-92
2023/06/26 07:40:46;;;;;;;7.20;4.65;;;;;;;23.33;63.10;99055.28;4955762;28;20047;-90
2023/06/26 07:43:14;;;;;;;7.80;4.43;;;;;;;23.21;62.17;99049.94;4970659;28;20050;-92
2023/06/26 07:45:39;;;;;;;9.57;5.07;;;;;;;23.32;62.30;99053.69;4958050;28;20031;-93
2023/06/26 07:48:10;;;;;;;8.88;4.93;;;;;;;23.49;62.40;99076.38;4955240;28;20197;-92
2023/06/26 07:50:36;;;;;;;9.60;6.25;;;;;;;23.47;64.45;99076.78;4988821;28;20018;-91
2023/06/26 07:53:03;;;;;;;15.40;4.45;;;;;;;23.77;61.10;99085.22;4956743;28;20030;-92
2023/06/26 07:55:29;;;;;;;9.50;7.38;;;;;;;23.71;62.51;99066.63;4958382;28;20416;-91
2023/06/26 07:57:55;;;;;;;7.72;4.53;;;;;;;23.85;60.77;99053.16;4974027;28;20064;-93
2023/06/26 08:00:20;;;;;;;10.90;8.40;;;;;;;24.11;60.65;99068.13;4950957;28;20022;-88
2023/06/26 08:02:53;;;;;;;8.15;5.25;;;;;;;24.30;61.67;99087.34;4953497;28;20034;-90
2023/06/26 08:05:37;;;;;;;10.13;4.68;;;;;;;24.31;60.21;99082.63;4964177;28;20085;-88
2023/06/26 08:08:12;;;;;;;6.65;4.40;;;;;;;24.12;60.97;99072.50;4972787;28;20023;-91
2023/06/26 08:10:40;;;;;;;5.13;4.20;;;;;;;24.33;58.65;99072.06;4986603;28;20042;-92
2023/06/26 08:13:06;;;;;;;7.05;3.70;;;;;;;24.73;57.64;99081.75;4962488;28;20099;-91
2023/06/26 08:15:36;;;;;;;6.32;4.38;;;;;;;24.98;58.46;99093.13;4968496;28;20023;-93
2023/06/26 08:18:04;;;;;;;9.73;4.90;;;;;;;24.92;59.20;99065.13;4968571;28;20061;-92
2023/06/26 08:20:30;;;;;;;9.68;6.65;;;;;;;24.97;59.57;99092.31;4987292;28;20077;-90
2023/06/26 08:22:56;;;;;;;7.68;4.93;;;;;;;24.58;59.74;99075.22;4967430;28;20023;-93
2023/06/26 08:25:22;;;;;;;7.00;5.20;;;;;;;24.38;60.34;99072.53;4955997;28;20027;-91
2023/06/26 08:27:48;;;;;;;6.07;4.20;;;;;;;24.40;60.40;99063.91;4948776;28;20035;-94
2023/06/26 08:30:55;;;;;;;11.95;6.38;;;;;;;24.57;61.07;99071.69;4977325;28;20117;-91
2023/06/26 08:34:03;;;;;;;10.80;4.32;;;;;;;25.01;58.80;99082.16;4996014;28;20117;-95
2023/06/26 08:36:55;;;;;;;;;;;;;;;;;;;;;
2023/06/26 08:42:08;;;;;;;14.23;5.65;;;;;;;25.15;58.48;99081.56;5100402;23;20056;-94
2023/06/26 08:48:15;;;;;;;10.38;4.63;;;;;;;24.80;56.93;99052.34;4982489;28;20073;-92
2023/06/26 08:50:46;;;;;;;11.85;4.47;;;;;;;25.15;55.98;99073.28;4948039;29;20148;-94
2023/06/26 08:53:50;;;;;;;6.20;4.30;;;;;;;25.14;57.30;99071.69;4980847;28;20069;-93
2023/06/26 08:56:21;;;;;;;55.65;35.90;;;;;;;24.73;59.95;99055.00;5028396;28;20014;-93
2023/06/26 08:58:50;;;;;;;9.40;4.85;;;;;;;24.78;59.25;99057.44;5014763;28;20025;-96
2023/06/26 09:01:19;;;;;;;9.68;4.85;;;;;;;24.49;58.05;99045.22;5030482;28;20072;-94
2023/06/26 09:10:27;;;;;;;9.68;5.55;;;;;;;24.48;59.43;99045.53;4965816;29;20162;-93
2023/06/26 09:12:55;;;;;;;5.35;4.13;;;;;;;24.69;57.45;99061.63;4980605;28;20069;-92
2023/06/26 09:15:44;;;;;;;8.68;4.72;;;;;;;24.99;59.38;99058.91;4991048;28;20460;-91
2023/06/26 09:18:11;;;;;;;19.70;5.22;;;;;;;24.93;58.65;99068.66;4997888;28;20109;-92
2023/06/26 09:20:36;;;;;;;6.13;4.25;;;;;;;24.68;58.29;99074.59;5004092;28;20022;-92
2023/06/26 09:23:05;;;;;;;7.13;4.20;;;;;;;24.99;57.84;99073.47;4971723;28;20068;-89
2023/06/26 09:25:34;;;;;;;8.10;4.28;;;;;;;25.10;58.53;99061.78;5007474;28;20014;-88
2023/06/26 09:28:14;;;;;;;6.53;4.82;;;;;;;24.97;58.80;99058.47;5021836;28;20186;-89
2023/06/26 09:30:43;;;;;;;10.15;5.32;;;;;;;25.07;59.09;99065.28;5003866;28;20053;-91
2023/06/26 09:33:16;;;;;;;10.02;5.35;;;;;;;25.27;58.43;99075.03;4994646;28;20457;-90
2023/06/26 09:35:43;;;;;;;6.70;4.65;;;;;;;25.41;59.30;99066.16;5007872;28;20014;-92
2023/06/26 09:38:10;;;;;;;6.55;4.30;;;;;;;25.41;57.94;99058.66;4991602;28;20026;-88
2023/06/26 09:40:37;;;;;;;9.10;4.15;;;;;;;25.75;56.89;99049.56;5011418;28;20056;-91
2023/06/26 09:43:12;;;;;;;7.68;4.45;;;;;;;26.01;55.17;99056.97;5010435;28;20040;-88
2023/06/26 09:45:39;;;;;;;6.72;4.85;;;;;;;25.84;55.62;99047.31;5023940;28;20025;-89
2023/06/26 09:48:08;;;;;;;8.77;4.20;;;;;;;25.74;55.01;99054.31;4996973;28;20187;-89
2023/06/26 09:50:44;;;;;;;6.90;4.70;;;;;;;25.53;55.79;99065.09;4985769;28;20030;-93
2023/06/26 09:53:15;;;;;;;7.88;4.25;;;;;;;25.49;55.34;99051.28;5007598;28;20030;-89
2023/06/26 09:55:43;;;;;;;6.13;4.30;;;;;;;25.41;55.13;99044.88;5014068;28;20068;-90
2023/06/26 09:58:14;;;;;;;7.63;4.50;;;;;;;25.30;56.53;99051.47;5004815;28;20038;-88
2023/06/26 10:00:43;;;;;;;6.60;4.50;;;;;;;25.71;55.04;99062.53;4990406;28;20049;-90
2023/06/26 10:03:12;;;;;;;6.80;4.28;;;;;;;25.68;55.18;99066.06;5005036;28;20041;-91
2023/06/26 10:05:39;;;;;;;8.45;5.50;;;;;;;25.43;56.90;99040.97;4989273;28;20095;-89
2023/06/26 10:08:10;;;;;;;12.40;5.18;;;;;;;25.46;57.09;99049.25;5005931;28;20120;-89
2023/06/26 10:10:37;;;;;;;11.15;5.40;;;;;;;25.32;57.50;99033.38;4983398;28;20031;-90
2023/06/26 10:13:11;;;;;;;10.88;5.38;;;;;;;25.90;56.93;99042.25;5001622;28;20037;-90
2023/06/26 10:15:39;;;;;;;14.75;5.63;;;;;;;25.95;57.35;99033.66;5022364;28;20456;-89
2023/06/26 10:18:07;;;;;;;8.70;4.85;;;;;;;26.13;55.03;99028.28;5020300;28;20041;-89
2023/06/26 10:20:33;;;;;;;12.02;5.63;;;;;;;26.06;55.29;99039.25;4988372;28;20034;-93
2023/06/26 10:23:00;;;;;;;6.72;4.68;;;;;;;25.77;55.61;99023.22;4989124;28;20104;-95
2023/06/26 10:39:16;;;;;;;6.85;4.80;;;;;;;26.41;53.01;99031.25;5026676;28;19960;-95
2023/06/26 10:41:43;;;;;;;6.00;4.28;;;;;;;26.33;52.59;99010.28;5027056;28;20093;-95
2023/06/26 10:44:14;;;;;;;12.10;4.90;;;;;;;26.72;52.74;99031.09;4995152;28;20034;-96
2023/06/26 10:46:59;;;;;;;7.65;4.57;;;;;;;26.53;52.52;99026.59;4982572;28;20061;-90
2023/06/26 10:49:37;;;;;;;;;;;;;;;;;;;;;
2023/06/26 10:52:15;;;;;;;8.23;4.18;;;;;;;26.60;53.15;99004.56;4964528;28;20108;-91
2023/06/26 10:54:59;;;;;;;4.88;3.90;;;;;;;26.78;51.79;99002.72;5006212;28;20060;-90
2023/06/26 10:57:25;;;;;;;7.07;3.63;;;;;;;26.85;51.91;98985.38;4970228;28;20396;-91
2023/06/26 11:00:16;;;;;;;5.32;3.90;;;;;;;26.95;53.62;98981.09;4982315;28;20041;-92
2023/06/26 11:02:49;;;;;;;4.57;3.28;;;;;;;27.37;49.85;98977.72;4986186;28;20053;-90
2023/06/26 11:05:27;;;;;;;9.32;4.13;;;;;;;27.10;49.56;98990.22;4971584;28;20041;-89
2023/06/26 11:08:15;;;;;;;7.50;3.80;;;;;;;27.52;49.16;98994.34;4981878;28;20030;-91
2023/06/26 11:10:57;;;;;;;12.45;6.25;;;;;;;27.60;48.97;98987.59;4973356;28;20172;-92
2023/06/26 11:13:22;;;;;;;;;;;;;;;27.69;48.42;99001.06;4980713;28;20022;-89
2023/06/26 11:15:49;;;;;;;4.55;3.22;;;;;;;27.49;49.13;98986.81;4998303;28;20359;-89
2023/06/26 11:19:07;;;;;;;12.52;4.13;;;;;;;27.39;48.64;98996.66;4984772;28;20184;-90
2023/06/26 11:21:51;;;;;;;6.40;4.07;;;;;;;26.88;49.98;98983.81;4990542;28;20029;-91
2023/06/26 11:24:23;;;;;;;8.55;4.72;;;;;;;26.56;51.87;98995.44;4989459;28;20026;-89
2023/06/26 11:27:15;;;;;;;7.88;3.95;;;;;;;26.33;52.98;98995.69;4990586;28;20106;-90
2023/06/26 11:29:47;;;;;;;6.97;3.70;;;;;;;26.29;53.21;98984.63;5002649;28;20132;-89
2023/06/26 11:35:30;;;;;;;7.47;4.30;;;;;;;26.18;52.53;98976.28;4985117;28;20056;-90
2023/06/26 11:38:09;;;;;;;8.50;4.40;;;;;;;26.24;52.72;98968.44;4989959;28;20125;-90
2023/06/26 11:40:36;;;;;;;7.45;4.38;;;;;;;26.69;51.77;98996.75;4989074;28;20056;-90
2023/06/26 11:43:05;;;;;;;6.65;3.20;;;;;;;26.91;51.13;98978.28;4984331;28;20064;-94
2023/06/26 11:46:05;;;;;;;;;;;;;;;;;;;;;
2023/06/26 11:58:19;;;;;;;3.85;2.92;;;;;;;26.91;49.67;98958.97;4968811;29;20041;-95
2023/06/26 12:00:48;;;;;;;11.07;3.47;;;;;;;26.93;49.68;98964.88;4953925;29;20023;-92
2023/06/26 12:03:17;;;;;;;8.40;3.08;;;;;;;27.08;48.82;98960.22;4981158;28;20034;-91
2023/06/26 12:05:44;;;;;;;4.70;3.03;;;;;;;27.10;48.46;98940.47;5010433;28;20494;-91
2023/06/26 12:08:13;;;;;;;4.97;3.03;;;;;;;27.46;47.07;98973.78;5005790;28;20134;-91
2023/06/26 12:10:39;;;;;;;4.82;3.05;;;;;;;27.48;46.70;98961.13;5022629;28;20030;-90
2023/06/26 12:13:18;;;;;;;7.43;3.85;;;;;;;27.37;47.88;98941.75;5006835;28;20042;-92
2023/06/26 12:16:40;;;;;;;11.73;3.90;;;;;;;27.54;47.03;98931.91;5004670;28;20041;-88
2023/06/26 12:19:10;;;;;;;5.72;2.80;;;;;;;27.59;46.80;98950.09;5021049;28;20090;-89
2023/06/26 12:25:12;;;;;;;7.05;2.85;;;;;;;27.86;46.74;98956.03;4913892;29;20815;-91
2023/06/26 12:28:24;;;;;;;6.95;4.30;;;;;;;27.78;47.55;98959.97;4886765;29;20545;-93
2023/06/26 12:31:23;;;;;;;5.78;3.50;;;;;;;28.01;46.47;98962.38;4976639;28;20025;-91
2023/06/26 12:33:59;;;;;;;4.40;2.35;;;;;;;27.77;46.21;98936.28;4990125;28;20042;-92
2023/06/26 12:36:27;;;;;;;4.65;2.60;;;;;;;27.91;45.25;98928.00;5002885;28;20076;-92
2023/06/26 12:38:53;;;;;;;5.00;2.70;;;;;;;28.02;44.49;98950.13;5008203;28;20120;-89